Nashville, Tennessee
Traffic Map
Current Weather Conditions
Nashville, Tennessee
Scattered Clouds
Scattered Clouds
42°
Feels Like: 35°
Wind Chill: 35° Ceiling: Unl
Heat Index: 42° Visibility: 10mi
Dew Point: 21° Wind: 14mph
Humidity: 43% Direction: 10° (N)
Pressure: 30.5in Gusts: 20mph
Raw Report DataKBNA 301653Z 01012G17KT 10SM SCT040 06/M06 A3050 RMK AO2 SLP330 T00561061
Traffic Incident Summary
Active as of:
Severity:
Category:
InformationThere was an issue retrieving the traffic information for this location. Please try a different location or try again shortly.
Advertisements
Track Severe Weather on mobile